sensor_id;sensor_type;location;lat;lon;timestamp;pressure;altitude;pressure_sealevel;temperature;humidity
20003;BME280;10162;41.600;23.806;2023-04-23T00:04:50;95181.56;;;5.67;100.00
20003;BME280;10162;41.600;23.806;2023-04-23T00:07:19;95164.72;;;5.63;100.00
20003;BME280;10162;41.600;23.806;2023-04-23T00:09:49;95157.75;;;5.63;100.00
20003;BME280;10162;41.600;23.806;2023-04-23T00:12:17;95169.88;;;5.55;100.00
20003;BME280;10162;41.600;23.806;2023-04-23T00:14:43;95169.88;;;5.55;100.00
20003;BME280;10162;41.600;23.806;2023-04-23T00:17:08;95172.50;;;5.63;100.00
20003;BME280;10162;41.600;23.806;2023-04-23T00:19:34;95169.22;;;5.85;100.00
20003;BME280;10162;41.600;23.806;2023-04-23T00:22:00;95170.69;;;5.96;100.00
20003;BME280;10162;41.600;23.806;2023-04-23T00:24:29;95185.44;;;5.71;100.00
20003;BME280;10162;41.600;23.806;2023-04-23T00:26:56;95162.44;;;5.60;100.00
20003;BME280;10162;41.600;23.806;2023-04-23T00:29:22;95172.78;;;5.76;100.00
20003;BME280;10162;41.600;23.806;2023-04-23T00:31:49;95171.81;;;5.85;100.00
20003;BME280;10162;41.600;23.806;2023-04-23T00:34:14;95177.81;;;5.77;100.00
20003;BME280;10162;41.600;23.806;2023-04-23T00:36:41;95186.72;;;5.59;100.00
20003;BME280;10162;41.600;23.806;2023-04-23T00:39:07;95171.50;;;5.72;100.00
20003;BME280;10162;41.600;23.806;2023-04-23T00:41:39;95166.50;;;5.38;100.00
20003;BME280;10162;41.600;23.806;2023-04-23T00:44:07;95170.53;;;5.49;100.00
20003;BME280;10162;41.600;23.806;2023-04-23T00:46:34;95178.31;;;5.49;100.00
20003;BME280;10162;41.600;23.806;2023-04-23T00:49:00;95177.03;;;5.45;100.00
20003;BME280;10162;41.600;23.806;2023-04-23T00:51:38;95185.47;;;5.47;100.00
20003;BME280;10162;41.600;23.806;2023-04-23T00:54:05;95185.44;;;5.87;100.00
20003;BME280;10162;41.600;23.806;2023-04-23T00:56:30;95189.66;;;5.96;100.00
20003;BME280;10162;41.600;23.806;2023-04-23T00:58:57;95197.09;;;5.83;100.00
20003;BME280;10162;41.600;23.806;2023-04-23T01:01:27;95203.44;;;5.72;100.00
20003;BME280;10162;41.600;23.806;2023-04-23T01:03:54;95189.00;;;5.54;100.00
20003;BME280;10162;41.600;23.806;2023-04-23T01:06:21;95202.81;;;5.62;100.00
20003;BME280;10162;41.600;23.806;2023-04-23T01:08:49;95202.78;;;5.70;100.00
20003;BME280;10162;41.600;23.806;2023-04-23T01:11:39;95200.50;;;5.75;100.00
20003;BME280;10162;41.600;23.806;2023-04-23T01:14:09;95201.81;;;5.71;100.00
20003;BME280;10162;41.600;23.806;2023-04-23T01:16:36;95196.97;;;5.60;100.00
20003;BME280;10162;41.600;23.806;2023-04-23T01:19:08;95207.66;;;5.57;100.00
20003;BME280;10162;41.600;23.806;2023-04-23T01:21:37;95196.81;;;5.46;100.00
20003;BME280;10162;41.600;23.806;2023-04-23T01:24:09;95188.03;;;5.55;100.00
20003;BME280;10162;41.600;23.806;2023-04-23T01:26:36;95202.63;;;5.39;100.00
20003;BME280;10162;41.600;23.806;2023-04-23T01:29:02;95195.19;;;5.45;100.00
20003;BME280;10162;41.600;23.806;2023-04-23T01:31:48;95201.16;;;5.53;100.00
20003;BME280;10162;41.600;23.806;2023-04-23T01:34:16;95188.69;;;5.49;100.00
20003;BME280;10162;41.600;23.806;2023-04-23T01:36:43;95189.75;;;4.89;100.00
20003;BME280;10162;41.600;23.806;2023-04-23T01:39:09;95186.03;;;4.84;100.00
20003;BME280;10162;41.600;23.806;2023-04-23T01:41:40;95189.47;;;5.09;100.00
20003;BME280;10162;41.600;23.806;2023-04-23T01:44:06;95197.59;;;5.38;100.00
20003;BME280;10162;41.600;23.806;2023-04-23T01:46:32;95210.56;;;5.54;100.00
20003;BME280;10162;41.600;23.806;2023-04-23T01:48:58;95177.81;;;5.21;100.00
20003;BME280;10162;41.600;23.806;2023-04-23T01:51:36;95208.25;;;5.11;100.00
20003;BME280;10162;41.600;23.806;2023-04-23T01:54:04;95201.28;;;5.11;100.00
20003;BME280;10162;41.600;23.806;2023-04-23T01:56:30;95190.91;;;5.03;100.00
20003;BME280;10162;41.600;23.806;2023-04-23T01:58:58;95203.72;;;5.21;100.00
20003;BME280;10162;41.600;23.806;2023-04-23T02:01:40;95199.66;;;5.10;100.00
20003;BME280;10162;41.600;23.806;2023-04-23T02:04:07;95195.81;;;5.30;100.00
20003;BME280;10162;41.600;23.806;2023-04-23T02:06:34;95211.31;;;4.98;100.00
20003;BME280;10162;41.600;23.806;2023-04-23T02:09:01;95193.91;;;4.66;100.00
20003;BME280;10162;41.600;23.806;2023-04-23T02:11:29;95189.78;;;4.47;100.00
20003;BME280;10162;41.600;23.806;2023-04-23T02:13:55;95204.16;;;4.50;100.00
20003;BME280;10162;41.600;23.806;2023-04-23T02:16:21;95212.44;;;4.53;100.00
20003;BME280;10162;41.600;23.806;2023-04-23T02:18:49;95197.41;;;4.57;100.00
20003;BME280;10162;41.600;23.806;2023-04-23T02:21:30;95191.94;;;4.68;100.00
20003;BME280;10162;41.600;23.806;2023-04-23T02:23:56;95203.22;;;4.51;100.00
20003;BME280;10162;41.600;23.806;2023-04-23T02:26:22;95200.81;;;4.57;100.00
20003;BME280;10162;41.600;23.806;2023-04-23T02:28:49;95204.25;;;4.66;100.00
20003;BME280;10162;41.600;23.806;2023-04-23T02:31:16;95199.56;;;4.70;100.00
20003;BME280;10162;41.600;23.806;2023-04-23T02:33:45;95202.81;;;4.72;100.00
20003;BME280;10162;41.600;23.806;2023-04-23T02:36:11;95192.78;;;4.77;100.00
20003;BME280;10162;41.600;23.806;2023-04-23T02:38:37;95186.31;;;4.39;100.00
20003;BME280;10162;41.600;23.806;2023-04-23T02:41:10;95191.06;;;4.51;100.00
20003;BME280;10162;41.600;23.806;2023-04-23T02:43:38;95189.84;;;4.64;100.00
20003;BME280;10162;41.600;23.806;2023-04-23T02:46:04;95218.41;;;4.46;100.00
20003;BME280;10162;41.600;23.806;2023-04-23T02:48:35;95205.03;;;4.25;100.00
20003;BME280;10162;41.600;23.806;2023-04-23T02:51:01;95211.09;;;4.41;100.00
20003;BME280;10162;41.600;23.806;2023-04-23T02:53:27;95212.06;;;4.40;100.00
20003;BME280;10162;41.600;23.806;2023-04-23T02:55:53;95218.41;;;4.46;100.00
20003;BME280;10162;41.600;23.806;2023-04-23T02:58:20;95226.69;;;4.99;100.00
20003;BME280;10162;41.600;23.806;2023-04-23T03:00:52;95226.03;;;4.97;100.00
20003;BME280;10162;41.600;23.806;2023-04-23T03:03:18;95222.09;;;4.85;100.00
20003;BME280;10162;41.600;23.806;2023-04-23T03:05:44;95222.91;;;4.78;100.00
20003;BME280;10162;41.600;23.806;2023-04-23T03:08:10;95220.22;;;4.53;100.00
20003;BME280;10162;41.600;23.806;2023-04-23T03:10:36;95227.94;;;4.87;100.00
20003;BME280;10162;41.600;23.806;2023-04-23T03:13:03;95219.69;;;4.92;100.00
20003;BME280;10162;41.600;23.806;2023-04-23T03:15:29;95233.13;;;4.95;100.00
20003;BME280;10162;41.600;23.806;2023-04-23T03:17:55;95205.13;;;4.41;100.00
20003;BME280;10162;41.600;23.806;2023-04-23T03:20:21;95217.09;;;4.42;100.00
20003;BME280;10162;41.600;23.806;2023-04-23T03:22:46;95203.00;;;4.36;100.00
20003;BME280;10162;41.600;23.806;2023-04-23T03:25:13;95208.72;;;4.56;100.00
20003;BME280;10162;41.600;23.806;2023-04-23T03:27:39;95203.94;;;4.35;100.00
20003;BME280;10162;41.600;23.806;2023-04-23T03:30:13;95205.44;;;4.38;100.00
20003;BME280;10162;41.600;23.806;2023-04-23T03:32:39;95202.94;;;4.28;100.00
20003;BME280;10162;41.600;23.806;2023-04-23T03:35:05;95211.44;;;4.38;100.00
20003;BME280;10162;41.600;23.806;2023-04-23T03:37:31;95194.94;;;4.47;100.00
20003;BME280;10162;41.600;23.806;2023-04-23T03:39:57;95189.16;;;4.20;100.00
20003;BME280;10162;41.600;23.806;2023-04-23T03:42:25;95209.28;;;4.34;100.00
20003;BME280;10162;41.600;23.806;2023-04-23T03:44:52;95210.91;;;4.35;100.00
20003;BME280;10162;41.600;23.806;2023-04-23T03:47:19;95214.91;;;4.55;100.00
20003;BME280;10162;41.600;23.806;2023-04-23T03:49:53;95216.50;;;4.56;100.00
20003;BME280;10162;41.600;23.806;2023-04-23T03:52:19;95210.88;;;4.27;100.00
20003;BME280;10162;41.600;23.806;2023-04-23T03:54:47;95213.75;;;4.24;100.00
20003;BME280;10162;41.600;23.806;2023-04-23T03:57:16;95214.44;;;4.26;100.00
20003;BME280;10162;41.600;23.806;2023-04-23T04:03:04;95219.91;;;4.56;100.00
20003;BME280;10162;41.600;23.806;2023-04-23T04:05:30;95219.63;;;4.34;100.00
20003;BME280;10162;41.600;23.806;2023-04-23T04:07:55;95220.16;;;4.45;100.00
20003;BME280;10162;41.600;23.806;2023-04-23T04:10:30;95228.94;;;4.19;100.00
20003;BME280;10162;41.600;23.806;2023-04-23T04:12:56;95239.84;;;4.30;100.00
20003;BME280;10162;41.600;23.806;2023-04-23T04:15:22;95246.13;;;4.62;100.00
20003;BME280;10162;41.600;23.806;2023-04-23T04:17:48;95241.00;;;4.70;100.00
20003;BME280;10162;41.600;23.806;2023-04-23T04:20:14;95239.41;;;4.77;100.00
20003;BME280;10162;41.600;23.806;2023-04-23T04:22:40;95244.47;;;4.86;100.00
20003;BME280;10162;41.600;23.806;2023-04-23T04:25:06;95225.84;;;4.83;100.00
20003;BME280;10162;41.600;23.806;2023-04-23T04:27:32;95268.19;;;5.16;100.00
20003;BME280;10162;41.600;23.806;2023-04-23T04:29:59;95248.78;;;5.36;100.00
20003;BME280;10162;41.600;23.806;2023-04-23T04:32:31;95270.66;;;5.33;100.00
20003;BME280;10162;41.600;23.806;2023-04-23T04:34:56;95265.19;;;5.61;100.00
20003;BME280;10162;41.600;23.806;2023-04-23T04:37:22;95265.97;;;5.53;100.00
20003;BME280;10162;41.600;23.806;2023-04-23T04:40:01;95265.47;;;5.41;100.00
20003;BME280;10162;41.600;23.806;2023-04-23T04:42:28;95259.69;;;5.64;100.00
20003;BME280;10162;41.600;23.806;2023-04-23T04:44:56;95270.72;;;5.58;100.00
20003;BME280;10162;41.600;23.806;2023-04-23T04:47:24;95254.84;;;5.69;100.00
20003;BME280;10162;41.600;23.806;2023-04-23T04:52:45;95259.22;;;6.01;100.00
20003;BME280;10162;41.600;23.806;2023-04-23T04:55:11;95264.09;;;6.04;100.00
20003;BME280;10162;41.600;23.806;2023-04-23T04:57:38;95262.28;;;6.29;100.00
20003;BME280;10162;41.600;23.806;2023-04-23T05:00:26;95269.69;;;6.56;100.00
20003;BME280;10162;41.600;23.806;2023-04-23T05:02:54;95258.94;;;6.67;100.00
20003;BME280;10162;41.600;23.806;2023-04-23T05:05:22;95271.97;;;6.59;100.00
20003;BME280;10162;41.600;23.806;2023-04-23T05:07:48;95252.00;;;6.51;100.00
20003;BME280;10162;41.600;23.806;2023-04-23T05:10:24;95273.03;;;6.81;100.00
20003;BME280;10162;41.600;23.806;2023-04-23T05:12:51;95261.50;;;6.83;100.00
20003;BME280;10162;41.600;23.806;2023-04-23T05:15:17;95266.09;;;6.65;100.00
20003;BME280;10162;41.600;23.806;2023-04-23T05:17:45;95271.53;;;6.86;100.00
20003;BME280;10162;41.600;23.806;2023-04-23T05:20:16;95272.16;;;6.96;100.00
20003;BME280;10162;41.600;23.806;2023-04-23T05:22:42;95273.16;;;6.87;100.00
20003;BME280;10162;41.600;23.806;2023-04-23T05:25:09;95286.03;;;7.20;100.00
20003;BME280;10162;41.600;23.806;2023-04-23T05:27:36;95287.84;;;7.11;100.00
20003;BME280;10162;41.600;23.806;2023-04-23T05:30:11;95279.88;;;7.13;100.00
20003;BME280;10162;41.600;23.806;2023-04-23T05:32:37;95280.13;;;7.26;100.00
20003;BME280;10162;41.600;23.806;2023-04-23T05:35:03;95277.44;;;7.42;100.00
20003;BME280;10162;41.600;23.806;2023-04-23T05:37:30;95288.69;;;7.65;100.00
20003;BME280;10162;41.600;23.806;2023-04-23T05:40:08;95270.28;;;8.12;100.00
20003;BME280;10162;41.600;23.806;2023-04-23T05:42:34;95275.09;;;8.01;100.00
20003;BME280;10162;41.600;23.806;2023-04-23T05:45:01;95267.22;;;8.09;100.00
20003;BME280;10162;41.600;23.806;2023-04-23T05:47:27;95278.22;;;8.19;100.00
20003;BME280;10162;41.600;23.806;2023-04-23T05:49:58;95276.41;;;8.19;100.00
20003;BME280;10162;41.600;23.806;2023-04-23T05:52:24;95278.25;;;8.11;100.00
20003;BME280;10162;41.600;23.806;2023-04-23T05:54:50;95275.81;;;8.32;100.00
20003;BME280;10162;41.600;23.806;2023-04-23T05:57:16;95285.94;;;8.64;100.00
20003;BME280;10162;41.600;23.806;2023-04-23T06:02:46;95285.03;;;8.43;100.00
20003;BME280;10162;41.600;23.806;2023-04-23T06:05:12;95281.63;;;8.71;100.00
20003;BME280;10162;41.600;23.806;2023-04-23T06:07:39;95296.44;;;9.00;100.00
20003;BME280;10162;41.600;23.806;2023-04-23T06:10:18;95287.63;;;8.72;100.00
20003;BME280;10162;41.600;23.806;2023-04-23T06:12:43;95290.06;;;8.74;100.00
20003;BME280;10162;41.600;23.806;2023-04-23T06:15:09;95297.63;;;8.68;100.00
20003;BME280;10162;41.600;23.806;2023-04-23T06:17:37;95298.53;;;8.76;100.00
20003;BME280;10162;41.600;23.806;2023-04-23T06:20:04;95288.97;;;9.12;100.00
20003;BME280;10162;41.600;23.806;2023-04-23T06:22:30;95282.78;;;9.13;100.00
20003;BME280;10162;41.600;23.806;2023-04-23T06:24:57;95294.84;;;8.85;100.00
20003;BME280;10162;41.600;23.806;2023-04-23T06:27:22;95287.84;;;8.85;100.00
20003;BME280;10162;41.600;23.806;2023-04-23T06:29:51;95288.09;;;9.20;100.00
20003;BME280;10162;41.600;23.806;2023-04-23T06:32:19;95296.78;;;9.77;100.00
20003;BME280;10162;41.600;23.806;2023-04-23T06:34:45;95294.97;;;9.78;100.00
20003;BME280;10162;41.600;23.806;2023-04-23T06:37:31;95299.41;;;9.63;100.00
20003;BME280;10162;41.600;23.806;2023-04-23T06:40:07;95275.88;;;9.77;100.00
20003;BME280;10162;41.600;23.806;2023-04-23T06:42:33;95282.34;;;9.60;100.00
20003;BME280;10162;41.600;23.806;2023-04-23T06:45:22;95287.91;;;9.57;100.00
20003;BME280;10162;41.600;23.806;2023-04-23T06:47:49;95290.00;;;9.47;100.00
20003;BME280;10162;41.600;23.806;2023-04-23T06:50:27;95292.78;;;10.03;100.00
20003;BME280;10162;41.600;23.806;2023-04-23T06:52:54;95276.75;;;10.27;100.00
20003;BME280;10162;41.600;23.806;2023-04-23T06:55:20;95274.50;;;9.81;100.00
20003;BME280;10162;41.600;23.806;2023-04-23T06:57:51;95286.88;;;9.94;100.00
20003;BME280;10162;41.600;23.806;2023-04-23T07:00:18;95286.16;;;10.49;100.00
20003;BME280;10162;41.600;23.806;2023-04-23T07:02:45;95277.19;;;10.86;100.00
20003;BME280;10162;41.600;23.806;2023-04-23T07:05:11;95291.44;;;10.56;100.00
20003;BME280;10162;41.600;23.806;2023-04-23T07:07:37;95265.78;;;10.66;100.00
20003;BME280;10162;41.600;23.806;2023-04-23T07:10:04;95280.38;;;11.16;100.00
20003;BME280;10162;41.600;23.806;2023-04-23T07:12:30;95292.75;;;11.42;100.00
20003;BME280;10162;41.600;23.806;2023-04-23T07:14:55;95291.94;;;11.41;100.00
20003;BME280;10162;41.600;23.806;2023-04-23T07:17:21;95282.09;;;11.02;100.00
20003;BME280;10162;41.600;23.806;2023-04-23T07:19:47;95279.50;;;11.56;100.00
20003;BME280;10162;41.600;23.806;2023-04-23T07:22:14;95279.72;;;11.68;100.00
20003;BME280;10162;41.600;23.806;2023-04-23T07:24:39;95279.81;;;11.27;100.00
20003;BME280;10162;41.600;23.806;2023-04-23T07:27:06;95274.00;;;11.38;100.00
20003;BME280;10162;41.600;23.806;2023-04-23T07:29:31;95285.66;;;11.83;100.00
20003;BME280;10162;41.600;23.806;2023-04-23T07:32:13;95272.75;;;11.82;100.00
20003;BME280;10162;41.600;23.806;2023-04-23T07:34:40;95273.78;;;12.14;100.00
20003;BME280;10162;41.600;23.806;2023-04-23T07:37:05;95267.31;;;11.96;100.00
20003;BME280;10162;41.600;23.806;2023-04-23T07:39:32;95260.41;;;11.69;100.00
20003;BME280;10162;41.600;23.806;2023-04-23T07:42:27;95281.44;;;12.09;100.00
20003;BME280;10162;41.600;23.806;2023-04-23T07:44:55;95273.56;;;12.02;100.00
20003;BME280;10162;41.600;23.806;2023-04-23T07:47:20;95275.28;;;11.69;100.00
20003;BME280;10162;41.600;23.806;2023-04-23T07:53:04;95276.41;;;12.20;100.00
20003;BME280;10162;41.600;23.806;2023-04-23T07:55:30;95255.06;;;12.17;99.21
20003;BME280;10162;41.600;23.806;2023-04-23T07:57:56;95261.84;;;12.90;97.23
20003;BME280;10162;41.600;23.806;2023-04-23T08:00:55;95271.47;;;13.22;95.34
20003;BME280;10162;41.600;23.806;2023-04-23T08:03:21;95266.19;;;13.29;97.09
20003;BME280;10162;41.600;23.806;2023-04-23T08:05:47;95256.19;;;13.57;94.95
20003;BME280;10162;41.600;23.806;2023-04-23T08:08:13;95261.69;;;13.87;92.57
20003;BME280;10162;41.600;23.806;2023-04-23T08:10:39;95267.13;;;13.54;89.40
20003;BME280;10162;41.600;23.806;2023-04-23T08:13:05;95243.44;;;13.61;88.14
20003;BME280;10162;41.600;23.806;2023-04-23T08:15:31;95255.00;;;13.85;86.94
20003;BME280;10162;41.600;23.806;2023-04-23T08:17:57;95249.53;;;13.93;85.82
20003;BME280;10162;41.600;23.806;2023-04-23T08:20:23;95256.47;;;13.81;81.63
20003;BME280;10162;41.600;23.806;2023-04-23T08:22:50;95244.63;;;13.96;81.82
20003;BME280;10162;41.600;23.806;2023-04-23T08:25:18;95228.00;;;13.78;76.22
20003;BME280;10162;41.600;23.806;2023-04-23T08:27:45;95231.94;;;13.93;76.90
20003;BME280;10162;41.600;23.806;2023-04-23T08:30:13;95235.06;;;14.33;75.98
20003;BME280;10162;41.600;23.806;2023-04-23T08:32:40;95223.69;;;14.64;75.18
20003;BME280;10162;41.600;23.806;2023-04-23T08:35:06;95208.06;;;14.87;76.18
20003;BME280;10162;41.600;23.806;2023-04-23T08:37:35;95204.75;;;15.10;75.02
20003;BME280;10162;41.600;23.806;2023-04-23T08:40:05;95199.94;;;15.07;72.48
20003;BME280;10162;41.600;23.806;2023-04-23T08:45:21;95201.03;;;15.36;72.80
20003;BME280;10162;41.600;23.806;2023-04-23T08:47:47;95191.41;;;15.42;70.87
20003;BME280;10162;41.600;23.806;2023-04-23T08:50:16;95208.88;;;15.06;69.94
20003;BME280;10162;41.600;23.806;2023-04-23T08:52:49;95206.16;;;15.31;71.39
20003;BME280;10162;41.600;23.806;2023-04-23T08:55:21;95215.00;;;15.55;66.40
20003;BME280;10162;41.600;23.806;2023-04-23T08:57:47;95201.19;;;15.71;65.24
20003;BME280;10162;41.600;23.806;2023-04-23T09:00:17;95183.25;;;15.61;61.50
20003;BME280;10162;41.600;23.806;2023-04-23T09:02:46;95179.56;;;15.03;67.18
20003;BME280;10162;41.600;23.806;2023-04-23T09:05:13;95193.63;;;15.75;65.63
20003;BME280;10162;41.600;23.806;2023-04-23T09:07:40;95203.09;;;15.94;61.70
20003;BME280;10162;41.600;23.806;2023-04-23T09:10:08;95189.03;;;16.11;57.67
20003;BME280;10162;41.600;23.806;2023-04-23T09:12:38;95195.38;;;16.45;56.90
20003;BME280;10162;41.600;23.806;2023-04-23T09:15:05;95186.75;;;16.50;58.25
20003;BME280;10162;41.600;23.806;2023-04-23T09:17:42;95192.72;;;16.22;59.95
20003;BME280;10162;41.600;23.806;2023-04-23T09:20:10;95200.66;;;16.45;60.03
20003;BME280;10162;41.600;23.806;2023-04-23T09:22:41;95162.66;;;16.70;57.66
20003;BME280;10162;41.600;23.806;2023-04-23T09:25:08;95178.03;;;16.84;58.95
20003;BME280;10162;41.600;23.806;2023-04-23T09:27:34;95188.03;;;16.71;58.18
20003;BME280;10162;41.600;23.806;2023-04-23T09:30:03;95196.22;;;17.09;56.77
20003;BME280;10162;41.600;23.806;2023-04-23T09:32:33;95189.41;;;16.97;56.64
20003;BME280;10162;41.600;23.806;2023-04-23T09:35:04;95169.69;;;17.16;57.90
20003;BME280;10162;41.600;23.806;2023-04-23T09:37:33;95180.94;;;17.51;53.00
20003;BME280;10162;41.600;23.806;2023-04-23T09:40:01;95184.75;;;17.04;50.19
20003;BME280;10162;41.600;23.806;2023-04-23T09:42:29;95169.81;;;17.77;48.50
20003;BME280;10162;41.600;23.806;2023-04-23T09:44:56;95160.06;;;17.95;50.00
20003;BME280;10162;41.600;23.806;2023-04-23T09:47:23;95145.25;;;17.94;48.96
20003;BME280;10162;41.600;23.806;2023-04-23T09:49:50;95161.41;;;17.81;48.69
20003;BME280;10162;41.600;23.806;2023-04-23T09:52:17;95157.09;;;17.91;49.11
20003;BME280;10162;41.600;23.806;2023-04-23T09:54:44;95155.09;;;18.32;48.61
20003;BME280;10162;41.600;23.806;2023-04-23T09:57:11;95155.03;;;18.60;45.89
20003;BME280;10162;41.600;23.806;2023-04-23T09:59:37;95134.28;;;18.74;43.61
20003;BME280;10162;41.600;23.806;2023-04-23T10:02:05;95118.44;;;18.24;45.27
20003;BME280;10162;41.600;23.806;2023-04-23T10:04:32;95145.66;;;18.74;45.96
20003;BME280;10162;41.600;23.806;2023-04-23T10:07:01;95147.38;;;19.02;44.45
20003;BME280;10162;41.600;23.806;2023-04-23T10:09:29;95136.13;;;19.38;40.75
20003;BME280;10162;41.600;23.806;2023-04-23T10:11:58;95141.78;;;18.60;44.67
20003;BME280;10162;41.600;23.806;2023-04-23T10:14:25;95115.78;;;18.40;43.67
20003;BME280;10162;41.600;23.806;2023-04-23T10:17:02;95113.28;;;18.67;43.27
20003;BME280;10162;41.600;23.806;2023-04-23T10:19:31;95115.75;;;18.74;43.02
20003;BME280;10162;41.600;23.806;2023-04-23T10:22:03;95119.81;;;19.03;42.59
20003;BME280;10162;41.600;23.806;2023-04-23T10:24:33;95125.72;;;19.10;42.27
20003;BME280;10162;41.600;23.806;2023-04-23T10:27:00;95114.81;;;19.28;41.73
20003;BME280;10162;41.600;23.806;2023-04-23T10:29:32;95120.06;;;19.23;42.50
20003;BME280;10162;41.600;23.806;2023-04-23T10:32:03;95098.03;;;19.23;39.02
20003;BME280;10162;41.600;23.806;2023-04-23T10:34:32;95098.44;;;19.36;41.30
20003;BME280;10162;41.600;23.806;2023-04-23T10:36:59;95090.91;;;19.23;40.34
20003;BME280;10162;41.600;23.806;2023-04-23T10:39:30;95093.31;;;19.25;39.84
20003;BME280;10162;41.600;23.806;2023-04-23T10:41:57;95081.13;;;19.02;39.86
20003;BME280;10162;41.600;23.806;2023-04-23T10:44:41;95100.97;;;19.48;38.93
20003;BME280;10162;41.600;23.806;2023-04-23T10:47:11;95088.84;;;19.30;40.17
20003;BME280;10162;41.600;23.806;2023-04-23T10:49:38;95080.06;;;20.15;40.71
20003;BME280;10162;41.600;23.806;2023-04-23T10:52:12;95078.84;;;19.96;41.35
20003;BME280;10162;41.600;23.806;2023-04-23T10:54:41;95075.28;;;19.80;40.04
20003;BME280;10162;41.600;23.806;2023-04-23T10:57:08;95076.88;;;20.13;40.19
20003;BME280;10162;41.600;23.806;2023-04-23T10:59:41;95076.66;;;20.20;39.67
20003;BME280;10162;41.600;23.806;2023-04-23T11:02:17;95078.22;;;20.16;38.96
20003;BME280;10162;41.600;23.806;2023-04-23T11:04:52;95070.75;;;20.13;39.52
20003;BME280;10162;41.600;23.806;2023-04-23T11:07:20;95065.03;;;20.31;39.26
20003;BME280;10162;41.600;23.806;2023-04-23T11:09:49;95069.44;;;20.15;39.77
20003;BME280;10162;41.600;23.806;2023-04-23T11:14:49;95056.66;;;19.70;39.92
20003;BME280;10162;41.600;23.806;2023-04-23T11:20:05;95067.63;;;19.52;42.06
20003;BME280;10162;41.600;23.806;2023-04-23T11:22:41;95056.59;;;19.97;41.94
20003;BME280;10162;41.600;23.806;2023-04-23T11:25:12;95062.84;;;19.54;41.49
20003;BME280;10162;41.600;23.806;2023-04-23T11:27:43;95042.28;;;19.13;42.48
20003;BME280;10162;41.600;23.806;2023-04-23T11:30:18;95055.53;;;19.39;42.33
20003;BME280;10162;41.600;23.806;2023-04-23T11:32:50;95067.91;;;19.29;41.19
20003;BME280;10162;41.600;23.806;2023-04-23T11:35:22;95057.84;;;19.58;40.33
20003;BME280;10162;41.600;23.806;2023-04-23T11:37:50;95063.63;;;19.82;41.33
20003;BME280;10162;41.600;23.806;2023-04-23T11:40:18;95055.91;;;19.80;40.17
20003;BME280;10162;41.600;23.806;2023-04-23T11:42:49;95077.69;;;20.56;38.97
20003;BME280;10162;41.600;23.806;2023-04-23T11:45:23;95064.53;;;20.86;40.05
20003;BME280;10162;41.600;23.806;2023-04-23T11:47:54;95064.13;;;21.20;39.87
20003;BME280;10162;41.600;23.806;2023-04-23T11:50:27;95073.78;;;21.46;37.31
20003;BME280;10162;41.600;23.806;2023-04-23T11:52:54;95063.84;;;19.48;39.99
20003;BME280;10162;41.600;23.806;2023-04-23T11:55:21;95064.56;;;20.02;38.91
20003;BME280;10162;41.600;23.806;2023-04-23T11:57:49;95056.91;;;20.48;39.07
20003;BME280;10162;41.600;23.806;2023-04-23T12:00:23;95068.34;;;19.74;35.80
20003;BME280;10162;41.600;23.806;2023-04-23T12:02:54;95045.19;;;20.02;33.34
20003;BME280;10162;41.600;23.806;2023-04-23T12:05:41;95056.75;;;21.47;32.04
20003;BME280;10162;41.600;23.806;2023-04-23T12:08:18;95034.44;;;22.04;34.91
20003;BME280;10162;41.600;23.806;2023-04-23T12:10:58;95029.00;;;22.44;34.49
20003;BME280;10162;41.600;23.806;2023-04-23T12:13:29;95035.47;;;21.88;35.07
20003;BME280;10162;41.600;23.806;2023-04-23T12:15:58;95039.19;;;21.81;36.20
20003;BME280;10162;41.600;23.806;2023-04-23T12:18:30;95009.84;;;20.95;37.07
20003;BME280;10162;41.600;23.806;2023-04-23T12:21:04;95021.47;;;19.85;37.80
20003;BME280;10162;41.600;23.806;2023-04-23T12:23:31;95032.75;;;20.44;38.52
20003;BME280;10162;41.600;23.806;2023-04-23T12:25:58;95025.97;;;19.85;39.09
20003;BME280;10162;41.600;23.806;2023-04-23T12:28:26;94993.63;;;19.88;40.17
20003;BME280;10162;41.600;23.806;2023-04-23T12:30:52;95023.75;;;20.08;39.66
20003;BME280;10162;41.600;23.806;2023-04-23T12:33:19;95012.56;;;20.06;39.02
20003;BME280;10162;41.600;23.806;2023-04-23T12:35:49;95007.94;;;19.87;39.77
20003;BME280;10162;41.600;23.806;2023-04-23T12:40:51;95000.16;;;20.69;37.89
20003;BME280;10162;41.600;23.806;2023-04-23T12:43:17;95002.91;;;20.84;37.59
20003;BME280;10162;41.600;23.806;2023-04-23T12:45:42;94997.94;;;21.23;37.10
20003;BME280;10162;41.600;23.806;2023-04-23T12:48:12;94982.53;;;21.35;37.28
20003;BME280;10162;41.600;23.806;2023-04-23T12:50:41;94997.34;;;20.96;37.97
20003;BME280;10162;41.600;23.806;2023-04-23T12:53:07;94973.75;;;21.40;35.10
20003;BME280;10162;41.600;23.806;2023-04-23T12:55:32;94993.94;;;21.16;35.73
20003;BME280;10162;41.600;23.806;2023-04-23T12:57:58;94989.97;;;21.43;34.25
20003;BME280;10162;41.600;23.806;2023-04-23T13:00:25;94994.50;;;21.53;36.21
20003;BME280;10162;41.600;23.806;2023-04-23T13:02:51;94990.69;;;21.03;36.78
20003;BME280;10162;41.600;23.806;2023-04-23T13:05:19;94972.72;;;20.43;37.00
20003;BME280;10162;41.600;23.806;2023-04-23T13:07:53;94985.09;;;20.90;37.08
20003;BME280;10162;41.600;23.806;2023-04-23T13:10:21;94966.72;;;19.69;37.76
20003;BME280;10162;41.600;23.806;2023-04-23T13:12:46;94971.13;;;20.42;37.33
20003;BME280;10162;41.600;23.806;2023-04-23T13:15:13;94990.03;;;20.56;36.18
20003;BME280;10162;41.600;23.806;2023-04-23T13:17:39;94993.16;;;20.43;36.25
20003;BME280;10162;41.600;23.806;2023-04-23T13:20:06;94984.63;;;19.52;38.18
20003;BME280;10162;41.600;23.806;2023-04-23T13:22:33;94977.44;;;19.47;38.39
20003;BME280;10162;41.600;23.806;2023-04-23T13:24:59;94961.31;;;19.27;40.03